Time;durP1;ratioP1;P1;durP2;ratioP2;P2;SDS_P1;SDS_P2;PMS_P1;PMS_P2;Temp;Humidity;BMP_temperature;BMP_pressure;BME280_temperature;BME280_humidity;BME280_pressure;Samples;Min_cycle;Max_cycle;Signal;HPM_P1;HPM_P2
2023/05/01 00:01:21;;;;;;;11.32;5.00;;;13.30;69.30;;;12.55;54.74;100730.44;5066880;28;20052;-76
2023/05/01 00:03:49;;;;;;;8.43;4.78;;;13.30;69.50;;;12.51;54.96;100730.06;5054527;28;20119;-75
2023/05/01 00:06:16;;;;;;;9.50;4.65;;;13.20;69.60;;;12.47;55.10;100720.00;5061446;28;20463;-76
2023/05/01 00:08:44;;;;;;;10.02;4.50;;;13.20;69.70;;;12.42;55.00;100725.19;5058751;28;20476;-77
2023/05/01 00:11:12;;;;;;;10.02;4.75;;;13.20;69.80;;;12.38;55.07;100719.44;5053074;28;20120;-77
2023/05/01 00:13:39;;;;;;;10.20;4.40;;;13.10;69.90;;;12.36;55.03;100714.31;5066140;28;20421;-78
2023/05/01 00:16:09;;;;;;;7.97;4.22;;;13.10;70.10;;;12.33;55.33;100714.75;5069161;28;20106;-77
2023/05/01 00:18:36;;;;;;;7.32;4.03;;;13.10;70.30;;;12.29;55.14;100710.88;5057379;28;20507;-76
2023/05/01 00:21:03;;;;;;;12.45;4.75;;;13.00;70.20;;;12.26;55.32;100705.97;5079224;28;20052;-77
2023/05/01 00:23:31;;;;;;;9.80;5.05;;;13.00;70.30;;;12.22;55.32;100694.06;5066229;28;20368;-78
2023/05/01 00:25:59;;;;;;;11.65;4.63;;;13.00;70.60;;;12.19;55.61;100691.00;5063325;28;20504;-75
2023/05/01 00:28:26;;;;;;;9.52;5.03;;;12.90;70.70;;;12.15;55.64;100693.31;5058083;28;20122;-76
2023/05/01 00:30:53;;;;;;;10.50;4.55;;;12.90;70.80;;;12.12;55.50;100688.38;5062129;28;20051;-77
2023/05/01 00:33:21;;;;;;;9.38;4.70;;;12.80;70.70;;;12.10;55.61;100682.41;5058235;28;20579;-75
2023/05/01 00:35:48;;;;;;;14.68;5.03;;;12.80;70.80;;;12.08;55.54;100679.13;5066832;28;20131;-77
2023/05/01 00:38:15;;;;;;;9.23;4.93;;;12.70;70.90;;;12.05;55.68;100679.56;5067636;28;20131;-76
2023/05/01 00:40:43;;;;;;;8.45;4.47;;;12.70;70.90;;;12.03;55.68;100673.63;5067027;28;20106;-78
2023/05/01 00:43:13;;;;;;;9.35;5.00;;;12.70;70.90;;;12.01;55.68;100681.06;5063412;28;20168;-76
2023/05/01 00:45:43;;;;;;;13.05;5.40;;;12.70;71.10;;;11.98;55.67;100671.59;5073670;28;20047;-77
2023/05/01 00:48:10;;;;;;;10.07;5.13;;;12.70;71.10;;;11.96;55.87;100672.84;5066681;28;20072;-77
2023/05/01 00:50:38;;;;;;;10.30;5.35;;;12.60;71.20;;;11.94;55.88;100669.56;5067191;28;20047;-77
2023/05/01 00:53:06;;;;;;;9.25;5.22;;;12.60;71.30;;;11.92;56.06;100663.63;5066219;28;20143;-77
2023/05/01 00:55:34;;;;;;;14.77;5.70;;;12.60;71.40;;;11.89;55.93;100656.84;5064657;28;20045;-77
2023/05/01 00:58:02;;;;;;;11.35;5.93;;;12.60;71.50;;;11.88;56.11;100655.22;5066522;28;20752;-76
2023/05/01 01:00:31;;;;;;;8.95;5.10;;;12.50;71.60;;;11.87;56.22;100655.44;5057363;28;20048;-78
2023/05/01 01:02:58;;;;;;;10.57;5.47;;;12.50;71.70;;;11.83;56.36;100655.84;5058220;28;20139;-78
2023/05/01 01:05:32;;;;;;;13.35;5.70;;;12.50;71.90;;;11.83;56.52;100650.50;5064410;28;20060;-76
2023/05/01 01:08:11;;;;;;;10.98;5.70;;;12.50;72.10;;;11.82;56.64;100646.22;5054601;28;20413;-77
2023/05/01 01:10:50;;;;;;;11.07;5.60;;;12.50;72.10;;;11.80;56.66;100644.72;5055226;28;20049;-76
2023/05/01 01:13:27;;;;;;;9.18;5.13;;;12.50;72.30;;;11.78;56.78;100644.97;5065952;28;20052;-76
2023/05/01 01:16:08;;;;;;;13.15;5.40;;;12.50;72.50;;;11.76;56.77;100633.69;5064847;28;20036;-78
2023/05/01 01:18:47;;;;;;;12.65;5.75;;;12.50;72.50;;;11.77;57.04;100634.50;5056767;28;20135;-76
2023/05/01 01:21:23;;;;;;;13.73;5.32;;;12.50;72.60;;;11.76;57.24;100631.00;5058380;28;20055;-77
2023/05/01 01:24:35;;;;;;;13.75;5.95;;;12.50;72.70;;;11.75;57.22;100629.34;5057684;28;20112;-77
2023/05/01 01:27:51;;;;;;;13.82;5.43;;;12.40;72.90;;;11.74;57.39;100625.03;5056196;28;20052;-77
2023/05/01 01:31:04;;;;;;;10.10;5.25;;;12.40;73.10;;;11.75;57.74;100616.00;5056902;28;20052;-76
2023/05/01 01:34:08;;;;;;;8.85;5.32;;;12.40;73.30;;;11.73;57.87;100619.91;5046670;28;20045;-77
2023/05/01 01:36:43;;;;;;;9.07;5.35;;;12.40;73.70;;;11.73;58.13;100619.91;5058043;28;20101;-77
2023/05/01 01:39:28;;;;;;;22.20;5.35;;;12.40;73.90;;;11.71;58.54;100622.81;5050418;28;20044;-76
2023/05/01 01:41:59;;;;;;;10.60;5.20;;;12.40;74.40;;;11.69;58.75;100624.06;5055023;28;20132;-77
2023/05/01 01:44:34;;;;;;;8.93;5.15;;;12.40;74.60;;;11.68;58.88;100617.91;5057018;28;20428;-77
2023/05/01 01:47:06;;;;;;;9.55;4.63;;;12.40;74.70;;;11.68;58.82;100614.41;5058368;28;20044;-76
2023/05/01 01:49:42;;;;;;;8.52;4.75;;;12.40;74.80;;;11.68;59.17;100617.06;5047200;28;20094;-77
2023/05/01 01:52:13;;;;;;;11.68;5.10;;;12.40;75.10;;;11.67;59.17;100610.91;5062905;28;20143;-76
2023/05/01 01:54:46;;;;;;;14.07;4.78;;;12.30;75.20;;;11.66;59.14;100611.94;5070468;28;20113;-77
2023/05/01 01:57:18;;;;;;;8.63;4.70;;;12.30;75.30;;;11.67;59.39;100599.41;5066007;28;20052;-77
2023/05/01 01:59:50;;;;;;;11.18;4.78;;;12.30;75.40;;;11.67;59.32;100599.41;5077333;28;20131;-78
2023/05/01 02:02:20;;;;;;;9.68;5.45;;;12.30;75.60;;;11.68;59.70;100604.53;5058848;28;20037;-76
2023/05/01 02:04:49;;;;;;;10.73;5.15;;;12.30;75.80;;;11.67;59.76;100597.56;5071934;28;20041;-78
2023/05/01 02:07:18;;;;;;;12.02;5.13;;;12.30;75.70;;;11.67;59.56;100589.53;5054715;28;20132;-77
2023/05/01 02:09:48;;;;;;;8.55;5.15;;;12.30;75.80;;;11.67;59.77;100584.19;5065573;28;20041;-77
2023/05/01 02:12:19;;;;;;;10.40;5.38;;;12.40;75.80;;;11.70;60.10;100590.94;5077555;28;20102;-77
2023/05/01 02:14:50;;;;;;;9.98;4.93;;;12.40;76.00;;;11.70;60.05;100583.75;5067652;28;20151;-76
2023/05/01 02:17:20;;;;;;;13.20;5.43;;;12.40;76.10;;;11.68;60.14;100572.47;5068833;28;20044;-78
2023/05/01 02:19:51;;;;;;;11.52;5.38;;;12.40;76.20;;;11.69;60.28;100578.63;5067051;28;20556;-76
2023/05/01 02:22:21;;;;;;;9.13;4.90;;;12.40;76.30;;;11.70;60.18;100577.59;5077975;28;20053;-76
2023/05/01 02:24:51;;;;;;;10.57;5.18;;;12.40;76.40;;;11.70;60.25;100574.91;5069608;28;20459;-77
2023/05/01 02:27:26;;;;;;;9.85;4.57;;;12.40;76.40;;;11.70;60.39;100573.06;5050784;28;20528;-75
2023/05/01 02:29:53;;;;;;;10.80;4.60;;;12.40;76.40;;;11.72;60.50;100570.19;5054321;28;20055;-77
2023/05/01 02:32:21;;;;;;;11.63;5.53;;;12.40;76.60;;;11.71;60.49;100563.19;5062323;28;20103;-78
2023/05/01 02:34:50;;;;;;;9.35;4.97;;;12.40;76.60;;;11.70;60.55;100564.22;5069625;28;20144;-77
2023/05/01 02:37:17;;;;;;;13.05;5.60;;;12.40;76.50;;;11.69;60.44;100563.41;5066904;28;20110;-77
2023/05/01 02:39:46;;;;;;;12.18;5.22;;;12.40;76.50;;;11.70;60.49;100556.22;5067164;28;20067;-78
2023/05/01 02:42:16;;;;;;;9.65;4.95;;;12.40;76.60;;;11.71;60.40;100552.50;5058574;28;20122;-77
2023/05/01 02:44:49;;;;;;;9.63;5.25;;;12.40;76.40;;;11.71;60.25;100552.50;5074114;28;20074;-77
2023/05/01 02:47:22;;;;;;;11.23;5.07;;;12.40;76.50;;;11.70;60.39;100553.53;5058609;28;20126;-75
2023/05/01 02:49:52;;;;;;;17.60;5.10;;;12.40;76.80;;;11.68;60.88;100548.44;5070280;28;20033;-76
2023/05/01 02:52:21;;;;;;;11.53;5.17;;;12.40;76.80;;;11.68;60.90;100537.75;5061379;28;20049;-77
2023/05/01 02:54:52;;;;;;;11.20;5.40;;;12.40;76.90;;;11.67;60.88;100536.13;5072945;28;20148;-77
2023/05/01 02:57:19;;;;;;;13.93;4.95;;;12.40;77.00;;;11.67;60.91;100536.13;5049855;28;20056;-76
2023/05/01 02:59:47;;;;;;;11.60;5.55;;;12.30;77.00;;;11.66;60.81;100531.78;5064417;28;20222;-77
2023/05/01 03:02:14;;;;;;;11.13;5.45;;;12.30;76.90;;;11.65;60.83;100529.34;5053337;28;20069;-75
2023/05/01 03:04:42;;;;;;;10.43;4.95;;;12.40;77.00;;;11.65;60.83;100532.81;5057100;28;20049;-75
2023/05/01 03:07:11;;;;;;;10.65;4.90;;;12.40;76.90;;;11.65;60.91;100522.13;5062366;28;20045;-76
2023/05/01 03:09:38;;;;;;;11.93;5.28;;;12.40;76.80;;;11.65;60.80;100527.47;5066985;28;20453;-77
2023/05/01 03:12:06;;;;;;;9.82;5.18;;;12.30;76.80;;;11.64;60.68;100520.50;5063265;28;20043;-76
2023/05/01 03:14:33;;;;;;;8.45;4.97;;;12.40;76.80;;;11.64;60.65;100515.16;5055727;28;20053;-78
2023/05/01 03:17:01;;;;;;;10.73;5.15;;;12.40;76.80;;;11.64;60.62;100506.34;5055004;28;20045;-77
2023/05/01 03:19:28;;;;;;;8.23;5.07;;;12.40;76.70;;;11.62;60.72;100509.22;5053502;28;20467;-78
2023/05/01 03:21:55;;;;;;;11.23;5.40;;;12.30;76.80;;;11.61;60.74;100510.25;5058873;28;20128;-75
2023/05/01 03:24:24;;;;;;;9.88;4.80;;;12.30;77.00;;;11.59;60.99;100507.81;5076865;28;20436;-77
2023/05/01 03:26:51;;;;;;;11.88;5.00;;;12.30;77.00;;;11.58;60.98;100505.34;5056301;28;20049;-78
2023/05/01 03:29:18;;;;;;;9.70;5.18;;;12.30;77.10;;;11.57;61.10;100503.72;5065701;28;20424;-76
2023/05/01 03:31:46;;;;;;;8.90;4.85;;;12.30;77.20;;;11.56;61.33;100496.72;5065250;28;20052;-77
2023/05/01 03:34:13;;;;;;;9.23;4.78;;;12.30;77.30;;;11.54;61.27;100493.47;5049424;28;20164;-76
2023/05/01 03:36:40;;;;;;;8.73;4.88;;;12.30;77.40;;;11.53;61.42;100495.31;5055487;28;20049;-76
2023/05/01 03:39:08;;;;;;;10.70;5.32;;;12.30;77.60;;;11.51;61.45;100494.69;5057595;28;20115;-76
2023/05/01 03:41:56;;;;;;;11.32;4.53;;;12.20;77.40;;;11.50;61.36;100481.56;5067398;28;20059;-76
2023/05/01 03:44:29;;;;;;;8.80;5.20;;;12.20;77.40;;;11.49;61.18;100485.28;5068412;28;20048;-76
2023/05/01 03:46:57;;;;;;;8.52;5.05;;;12.20;77.40;;;11.47;61.07;100482.84;5060871;28;20069;-75
2023/05/01 03:49:28;;;;;;;;;;;12.10;77.40;;;11.45;61.34;100481.41;5069325;28;20578;-77
2023/05/01 03:51:55;;;;;;;10.02;5.15;;;12.10;77.40;;;11.43;61.26;100478.16;5062245;28;19970;-78
2023/05/01 03:54:24;;;;;;;10.00;5.25;;;12.10;77.50;;;11.41;61.30;100480.19;5057783;28;20052;-77
2023/05/01 03:57:02;;;;;;;11.57;5.53;;;12.10;77.50;;;11.42;61.44;100485.34;5080417;28;20102;-78
2023/05/01 03:59:30;;;;;;;9.60;5.70;;;12.10;77.60;;;11.38;61.35;100473.44;5069430;28;20127;-75
2023/05/01 04:01:58;;;;;;;11.90;5.35;;;12.10;77.60;;;11.37;61.42;100477.16;5051972;28;20394;-77
2023/05/01 04:04:28;;;;;;;8.60;5.15;;;12.10;77.70;;;11.36;61.29;100475.50;5066274;28;20059;-78
2023/05/01 04:06:57;;;;;;;12.68;5.03;;;12.00;77.60;;;11.34;61.42;100473.06;5053030;28;20137;-75
2023/05/01 04:09:24;;;;;;;9.23;5.18;;;12.00;77.80;;;11.33;61.40;100479.44;5049427;28;20052;-76
2023/05/01 04:11:52;;;;;;;8.85;4.60;;;12.00;77.80;;;11.32;61.34;100474.28;5062181;28;20145;-78
2023/05/01 04:14:20;;;;;;;10.50;4.85;;;12.00;77.80;;;11.30;61.45;100469.19;5057446;28;20527;-76
2023/05/01 04:16:48;;;;;;;8.10;4.50;;;12.00;77.90;;;11.28;61.59;100471.25;5054028;28;20099;-76
2023/05/01 04:19:15;;;;;;;10.45;5.18;;;12.00;77.80;;;11.28;61.43;100468.59;5054196;28;20133;-76
2023/05/01 04:21:45;;;;;;;9.20;4.78;;;11.90;77.80;;;11.25;61.41;100469.00;5054043;28;20143;-77
2023/05/01 04:24:13;;;;;;;9.40;5.03;;;11.90;77.90;;;11.24;61.55;100470.03;5062931;28;20048;-77
2023/05/01 04:26:41;;;;;;;10.65;5.10;;;11.90;78.00;;;11.23;61.69;100465.75;5054668;28;20048;-77
2023/05/01 04:29:09;;;;;;;11.73;5.03;;;11.90;78.00;;;11.23;61.69;100465.75;5050188;28;20531;-77
2023/05/01 04:31:40;;;;;;;9.20;4.93;;;11.90;78.10;;;11.21;61.69;100462.47;5055955;28;20137;-77
2023/05/01 04:34:07;;;;;;;9.38;4.78;;;11.90;78.10;;;11.20;61.77;100463.50;5054085;28;20408;-76
2023/05/01 04:36:37;;;;;;;8.35;4.68;;;11.90;78.20;;;11.19;61.72;100461.88;5054158;28;20036;-77
2023/05/01 04:39:04;;;;;;;9.82;5.20;;;11.90;78.20;;;11.18;61.90;100462.91;5056226;28;20052;-77
2023/05/01 04:41:31;;;;;;;10.43;5.03;;;11.90;78.20;;;11.17;61.78;100463.91;5053547;28;20501;-77
2023/05/01 04:43:59;;;;;;;11.00;4.70;;;11.90;78.40;;;11.15;61.76;100458.00;5067430;28;20052;-77
2023/05/01 04:46:27;;;;;;;14.25;5.85;;;11.80;78.20;;;11.16;62.01;100466.81;5066329;28;20098;-77
2023/05/01 04:48:55;;;;;;;11.52;5.05;;;11.80;78.40;;;11.16;61.87;100462.28;5056513;28;20049;-77
2023/05/01 04:51:22;;;;;;;8.07;5.10;;;11.80;78.40;;;11.16;61.97;100464.13;5047808;28;20044;-76
2023/05/01 04:53:50;;;;;;;9.50;5.03;;;11.80;78.40;;;11.15;61.92;100463.31;5062260;28;20049;-78
2023/05/01 04:56:24;;;;;;;14.48;5.63;;;11.80;78.40;;;11.15;62.07;100462.50;5056148;28;20052;-77
2023/05/01 04:58:55;;;;;;;8.70;5.15;;;11.80;78.50;;;11.15;62.25;100458.00;5066523;28;20052;-75
2023/05/01 05:01:25;;;;;;;8.88;5.25;;;11.80;78.60;;;11.15;62.19;100458.00;5064609;28;20877;-77
2023/05/01 05:03:52;;;;;;;10.60;5.30;;;11.80;78.70;;;11.15;62.38;100465.19;5052322;28;20131;-76
2023/05/01 05:06:21;;;;;;;9.23;5.07;;;11.80;78.90;;;11.17;62.56;100461.25;5062535;28;20079;-77
2023/05/01 05:08:50;;;;;;;11.05;5.07;;;11.80;79.00;;;11.17;62.69;100463.91;5060724;28;20132;-78
2023/05/01 05:11:18;;;;;;;13.40;6.15;;;11.80;79.10;;;11.17;62.49;100461.25;5049725;28;20045;-77
2023/05/01 05:14:01;;;;;;;10.68;5.43;;;11.80;79.20;;;11.18;63.00;100462.91;5058010;28;20523;-77
2023/05/01 05:16:28;;;;;;;8.38;5.40;;;11.80;79.30;;;11.19;62.97;100463.72;5056485;28;20145;-76
2023/05/01 05:18:56;;;;;;;8.43;5.30;;;11.80;79.50;;;11.21;63.05;100458.97;5065980;28;20098;-76
2023/05/01 05:21:27;;;;;;;9.23;5.50;;;11.90;79.60;;;11.23;63.31;100460.41;5066484;28;20475;-78
2023/05/01 05:23:57;;;;;;;10.52;5.28;;;12.00;79.80;;;11.24;63.29;100464.72;5060959;28;20429;-78
2023/05/01 05:26:26;;;;;;;11.50;5.32;;;11.90;79.80;;;11.26;63.40;100465.28;5053721;28;20044;-76
2023/05/01 05:28:54;;;;;;;9.32;5.45;;;11.90;80.00;;;11.29;63.39;100464.88;5070786;28;20077;-75
2023/05/01 05:31:22;;;;;;;11.52;5.15;;;11.90;79.90;;;11.31;63.88;100465.47;5079986;28;20043;-77
2023/05/01 05:33:49;;;;;;;13.48;5.47;;;12.00;80.30;;;11.33;63.66;100463.41;5061941;28;20056;-77
2023/05/01 05:36:17;;;;;;;11.52;5.50;;;12.00;80.00;;;11.37;63.35;100463.81;5069433;28;20053;-76
2023/05/01 05:38:46;;;;;;;9.07;5.53;;;12.00;80.00;;;11.42;63.62;100460.47;5058123;28;20584;-76
2023/05/01 05:41:17;;;;;;;8.27;5.45;;;12.10;80.10;;;11.46;63.50;100459.81;5067153;28;20040;-75
2023/05/01 05:43:45;;;;;;;10.30;5.65;;;12.10;79.90;;;11.52;63.23;100455.47;5054841;28;20058;-76
2023/05/01 05:46:12;;;;;;;11.60;6.28;;;12.20;79.80;;;11.57;63.26;100452.97;5067154;28;20413;-77
2023/05/01 05:48:41;;;;;;;11.55;6.35;;;12.20;80.20;;;11.63;63.23;100460.09;5057910;28;20148;-76
2023/05/01 05:51:08;;;;;;;10.80;5.40;;;12.20;80.10;;;11.68;63.07;100452.25;5050391;28;20052;-78
2023/05/01 05:53:35;;;;;;;11.68;6.00;;;12.30;80.20;;;11.74;63.15;100459.38;5067197;28;20589;-76
2023/05/01 05:56:04;;;;;;;9.02;5.97;;;12.30;80.20;;;11.81;62.93;100456.69;5057401;28;20048;-76
2023/05/01 05:58:32;;;;;;;14.90;5.85;;;12.40;80.10;;;11.86;62.56;100448.84;5063261;28;20489;-75
2023/05/01 06:00:59;;;;;;;9.27;5.65;;;12.50;79.60;;;11.92;62.60;100442.63;5066405;28;20602;-77
2023/05/01 06:03:27;;;;;;;11.98;5.68;;;12.50;79.80;;;11.98;62.59;100447.06;5068656;28;20048;-76
2023/05/01 06:05:57;;;;;;;10.40;5.90;;;12.60;79.80;;;12.02;62.15;100444.78;5067005;28;20068;-76
2023/05/01 06:08:24;;;;;;;12.40;5.63;;;12.60;79.10;;;12.04;61.85;100450.72;5069019;28;20068;-77
2023/05/01 06:10:52;;;;;;;14.02;6.85;;;12.60;78.90;;;12.05;61.82;100445.16;5067497;28;20048;-77
2023/05/01 06:13:20;;;;;;;13.55;6.28;;;12.70;78.90;;;12.08;61.86;100443.88;5068199;28;20451;-77
2023/05/01 06:15:49;;;;;;;12.73;6.30;;;12.70;79.00;;;12.12;61.84;100439.75;5062012;28;20044;-78
2023/05/01 06:18:17;;;;;;;12.82;5.80;;;12.70;79.10;;;12.19;62.04;100442.31;5054999;28;20496;-75
2023/05/01 06:20:46;;;;;;;13.27;6.20;;;12.80;79.00;;;12.22;62.01;100437.38;5079721;28;20049;-77
2023/05/01 06:23:14;;;;;;;10.65;5.78;;;12.80;79.00;;;12.27;61.94;100450.88;5058528;28;20113;-76
2023/05/01 06:25:57;;;;;;;12.27;6.20;;;12.90;79.00;;;12.31;61.78;100448.59;5050789;28;20052;-77
2023/05/01 06:28:26;;;;;;;12.48;6.00;;;12.90;78.80;;;12.35;61.75;100447.91;5063429;28;20086;-76
2023/05/01 06:30:55;;;;;;;13.68;6.32;;;12.90;78.70;;;12.41;61.73;100440.03;5074621;28;20061;-76
2023/05/01 06:33:23;;;;;;;12.00;5.53;;;13.00;78.80;;;12.47;63.12;100444.47;5067077;28;20119;-76
2023/05/01 06:36:02;;;;;;;10.65;5.80;;;13.10;80.20;;;12.53;62.75;100438.22;5062998;28;20049;-77
2023/05/01 06:38:29;;;;;;;10.32;5.38;;;13.20;79.60;;;12.58;62.10;100436.50;5059489;28;20136;-77
2023/05/01 06:40:56;;;;;;;9.45;5.72;;;13.20;79.00;;;12.61;61.71;100440.59;5054191;28;20076;-77
2023/05/01 06:43:26;;;;;;;9.23;5.47;;;13.30;78.40;;;12.65;61.38;100436.44;5065679;28;20045;-77
2023/05/01 06:45:54;;;;;;;9.35;5.43;;;13.30;78.10;;;12.69;61.65;100429.59;5054546;28;20045;-76
2023/05/01 06:48:21;;;;;;;9.68;5.53;;;13.40;78.50;;;12.75;61.61;100434.03;5068674;28;20052;-77
2023/05/01 06:50:48;;;;;;;11.75;5.72;;;13.40;78.40;;;12.82;61.22;100434.75;5061204;28;20071;-78
2023/05/01 06:53:16;;;;;;;8.27;4.90;;;13.50;78.00;;;12.86;61.00;100438.63;5054103;28;20041;-75
2023/05/01 06:55:43;;;;;;;13.65;5.00;;;13.50;77.80;;;12.91;61.21;100437.94;5053582;28;20070;-79
2023/05/01 06:58:10;;;;;;;9.93;4.82;;;13.60;77.80;;;12.98;61.61;100435.16;5066333;28;20143;-77
2023/05/01 07:00:39;;;;;;;8.63;4.43;;;13.70;78.20;;;13.04;61.07;100431.59;5059642;28;20107;-76
2023/05/01 07:03:06;;;;;;;9.23;4.47;;;13.70;77.30;;;13.11;61.17;100435.78;5066603;28;20052;-76
2023/05/01 07:05:33;;;;;;;10.30;4.88;;;13.80;77.90;;;13.18;61.74;100441.06;5068204;28;20420;-77
2023/05/01 07:08:01;;;;;;;10.27;5.18;;;13.90;78.40;;;13.21;61.75;100440.59;5055984;28;20072;-77
2023/05/01 07:10:29;;;;;;;8.45;4.50;;;13.90;78.20;;;13.29;61.55;100450.19;5069006;28;20048;-77
2023/05/01 07:12:56;;;;;;;7.95;4.18;;;14.00;78.10;;;13.38;61.83;100432.75;5054767;28;20072;-77
2023/05/01 07:15:23;;;;;;;6.95;4.20;;;14.10;78.30;;;13.46;60.72;100432.41;5061884;28;20037;-78
2023/05/01 07:17:52;;;;;;;8.32;4.15;;;14.20;77.00;;;13.55;60.20;100436.38;5059556;28;20041;-77
2023/05/01 07:20:19;;;;;;;7.90;4.18;;;14.30;76.60;;;13.61;60.03;100440.81;5063744;28;20063;-76
2023/05/01 07:22:46;;;;;;;6.93;2.88;;;14.30;76.30;;;13.71;60.14;100442.91;5070112;28;20102;-77
2023/05/01 07:25:14;;;;;;;6.20;3.47;;;14.40;76.20;;;13.81;60.43;100440.50;5056543;28;20166;-77
2023/05/01 07:27:41;;;;;;;6.70;3.25;;;14.60;76.80;;;13.90;59.25;100443.59;5059036;28;20414;-77
2023/05/01 07:30:10;;;;;;;8.50;2.50;;;14.60;75.30;;;13.97;56.89;100438.97;5062517;28;20048;-77
2023/05/01 07:32:37;;;;;;;7.85;2.60;;;14.70;72.70;;;14.04;57.95;100434.28;5057251;28;20402;-77
2023/05/01 07:35:07;;;;;;;4.45;2.30;;;14.80;74.10;;;14.12;58.23;100436.63;5065647;28;20124;-75
2023/05/01 07:37:34;;;;;;;7.72;2.47;;;14.90;74.00;;;14.17;56.27;100446.63;5066878;28;20059;-77
2023/05/01 07:40:02;;;;;;;5.32;3.05;;;14.90;72.10;;;14.21;57.44;100441.63;5061440;28;20084;-76
2023/05/01 07:42:29;;;;;;;5.57;2.50;;;15.00;73.60;;;14.23;56.39;100429.59;5066545;28;20570;-77
2023/05/01 07:44:56;;;;;;;6.10;2.20;;;15.00;72.10;;;14.28;56.07;100432.38;5066239;28;20140;-77
2023/05/01 07:47:24;;;;;;;7.05;2.55;;;15.00;71.50;;;14.33;56.97;100424.44;5062346;28;20535;-78
2023/05/01 07:49:51;;;;;;;5.53;2.45;;;15.10;72.60;;;14.38;56.44;100429.91;5061422;28;20580;-77
2023/05/01 07:52:19;;;;;;;8.07;2.67;;;15.20;71.80;;;14.41;54.46;100428.63;5062391;28;20115;-77
2023/05/01 07:54:50;;;;;;;7.38;2.38;;;15.20;69.70;;;14.45;55.06;100413.69;5055971;28;20106;-76
2023/05/01 07:57:18;;;;;;;5.95;2.50;;;15.20;70.40;;;14.50;52.93;100418.38;5059794;28;20039;-77
2023/05/01 07:59:45;;;;;;;3.88;2.13;;;15.30;68.30;;;14.56;54.55;100422.78;5064931;28;20120;-77
2023/05/01 08:02:12;;;;;;;5.18;2.20;;;15.20;69.70;;;14.59;53.66;100419.59;5064756;28;20040;-77
2023/05/01 08:04:40;;;;;;;6.32;2.50;;;15.40;68.70;;;14.66;54.06;100426.47;5057255;28;20052;-75
2023/05/01 08:07:07;;;;;;;5.00;2.28;;;15.40;69.20;;;14.71;52.75;100415.03;5062777;28;20097;-76
2023/05/01 08:09:36;;;;;;;10.20;2.65;;;15.50;67.50;;;14.76;51.70;100414.31;5055070;28;20048;-77
2023/05/01 08:12:03;;;;;;;4.53;2.47;;;15.50;66.40;;;14.81;51.77;100417.09;5061265;28;20121;-75
2023/05/01 08:14:30;;;;;;;8.23;2.70;;;15.60;66.60;;;14.92;51.97;100417.00;5059225;28;20235;-77
2023/05/01 08:16:58;;;;;;;5.90;2.28;;;15.70;66.80;;;15.03;51.34;100422.56;5054629;28;20493;-77
2023/05/01 08:19:27;;;;;;;5.78;2.33;;;15.80;65.80;;;15.15;51.29;100416.09;5056053;28;20136;-77
2023/05/01 08:21:54;;;;;;;4.75;2.33;;;16.10;65.80;;;15.25;51.05;100414.63;5062701;28;20136;-77
2023/05/01 08:24:22;;;;;;;6.43;2.20;;;16.00;65.50;;;15.31;50.42;100419.84;5061466;28;20040;-77
2023/05/01 08:26:51;;;;;;;7.10;2.63;;;16.00;64.80;;;15.36;51.85;100417.22;5061556;28;20043;-75
2023/05/01 08:29:18;;;;;;;6.43;2.45;;;16.10;67.00;;;15.41;51.56;100409.25;5066403;28;20048;-76
2023/05/01 08:31:45;;;;;;;8.32;2.67;;;16.20;66.00;;;15.50;51.94;100408.84;5052888;28;20040;-78
2023/05/01 08:34:12;;;;;;;5.07;2.20;;;16.30;66.60;;;15.57;50.12;100410.31;5063505;28;20065;-77
2023/05/01 08:36:40;;;;;;;5.47;2.35;;;16.40;64.00;;;15.67;50.11;100404.31;5056507;28;20127;-78
2023/05/01 08:39:07;;;;;;;5.40;2.28;;;16.40;64.00;;;15.81;51.70;100407.44;5059966;28;20075;-77
2023/05/01 08:41:37;;;;;;;6.68;2.38;;;16.50;66.30;;;15.87;50.58;100404.59;5052104;28;20412;-77
2023/05/01 08:44:08;;;;;;;5.25;2.38;;;16.60;64.90;;;15.95;49.24;100403.34;5059246;28;20122;-77
2023/05/01 08:46:47;;;;;;;8.75;2.45;;;16.70;62.90;;;16.04;48.08;100398.38;5059575;28;20033;-76
2023/05/01 08:49:17;;;;;;;5.65;2.45;;;16.80;61.10;;;16.09;48.97;100406.50;5067175;28;20045;-78
2023/05/01 08:51:47;;;;;;;7.68;2.83;;;16.90;62.40;;;16.11;48.83;100407.91;5059096;28;20037;-77
2023/05/01 08:54:15;;;;;;;8.32;2.55;;;16.90;62.50;;;16.20;49.91;100401.00;5059717;28;20047;-77
2023/05/01 08:56:46;;;;;;;5.70;2.47;;;17.00;63.80;;;16.32;47.54;100400.88;5061762;28;20609;-77
2023/05/01 08:59:15;;;;;;;5.53;2.40;;;17.10;60.40;;;16.37;48.89;100397.44;5067035;28;20188;-78
2023/05/01 09:01:44;;;;;;;6.82;2.25;;;17.20;62.40;;;16.42;48.31;100400.19;5058322;28;20471;-77
2023/05/01 09:04:13;;;;;;;4.32;2.10;;;17.20;61.60;;;16.47;48.46;100401.06;5062946;28;20051;-77
2023/05/01 09:06:40;;;;;;;8.65;2.60;;;17.30;62.00;;;16.51;47.42;100393.31;5067635;28;20090;-75
2023/05/01 09:09:07;;;;;;;4.50;2.15;;;17.30;60.60;;;16.54;48.40;100397.34;5052901;28;20049;-78
2023/05/01 09:11:35;;;;;;;7.70;2.70;;;17.30;61.40;;;16.55;49.89;100394.44;5050512;28;20568;-77
2023/05/01 09:14:04;;;;;;;5.65;2.22;;;17.40;63.80;;;16.57;48.98;100394.97;5063681;28;20066;-77
2023/05/01 09:16:34;;;;;;;8.25;2.55;;;17.40;62.00;;;16.60;49.02;100394.47;5065601;28;20072;-77
2023/05/01 09:19:01;;;;;;;7.03;2.30;;;17.40;62.40;;;16.61;49.19;100395.28;5062535;28;20047;-78
2023/05/01 09:21:30;;;;;;;4.30;2.10;;;17.40;62.40;;;16.63;48.50;100401.22;5063130;28;20047;-77
2023/05/01 09:23:58;;;;;;;6.13;2.20;;;17.40;61.70;;;16.65;49.59;100399.91;5067293;28;20591;-76
2023/05/01 09:26:25;;;;;;;7.03;2.67;;;17.50;63.00;;;16.69;49.65;100401.03;5059453;28;20128;-78
2023/05/01 09:28:56;;;;;;;10.05;2.75;;;17.50;63.00;;;16.79;48.67;100400.38;5054709;28;20092;-76
2023/05/01 09:31:27;;;;;;;6.03;2.30;;;17.60;62.00;;;16.87;47.61;100397.19;5064652;28;20134;-76
2023/05/01 09:33:58;;;;;;;5.75;2.15;;;17.70;60.40;;;17.01;45.57;100396.78;5054196;28;20098;-75
2023/05/01 09:36:26;;;;;;;8.27;2.03;;;17.80;57.80;;;17.06;46.01;100394.16;5061648;28;20114;-77
2023/05/01 09:38:54;;;;;;;4.15;2.20;;;17.80;58.50;;;17.14;46.11;100391.00;5067465;28;20036;-77
2023/05/01 09:41:22;;;;;;;5.38;2.30;;;17.90;58.40;;;17.23;46.62;100395.66;5069130;28;20044;-78
2023/05/01 09:43:54;;;;;;;7.00;2.25;;;18.00;59.20;;;17.29;48.17;100393.81;5051902;28;20053;-77
2023/05/01 09:46:23;;;;;;;4.28;2.00;;;18.10;61.20;;;17.46;46.57;100396.34;5063780;28;20036;-77
2023/05/01 09:48:57;;;;;;;8.07;2.50;;;18.20;58.70;;;17.55;46.98;100396.69;5066498;28;20123;-78
2023/05/01 09:51:27;;;;;;;4.93;2.38;;;18.30;59.60;;;17.57;47.26;100389.16;5073659;28;20068;-78
2023/05/01 09:53:56;;;;;;;6.45;1.92;;;18.40;59.90;;;17.60;45.89;100396.72;5056831;28;20744;-78
2023/05/01 09:56:25;;;;;;;4.03;2.00;;;18.40;57.70;;;17.61;44.62;100387.56;5049663;28;20041;-78
2023/05/01 09:58:54;;;;;;;5.90;2.17;;;18.50;57.00;;;17.60;46.73;100392.13;5059744;28;20660;-78
2023/05/01 10:01:39;;;;;;;4.97;2.10;;;18.50;59.10;;;17.73;44.14;100391.72;5063591;28;20557;-76
2023/05/01 10:04:13;;;;;;;5.93;2.58;;;18.50;56.00;;;17.82;46.90;100386.66;5062976;28;20059;-77
2023/05/01 10:06:41;;;;;;;6.13;2.15;;;18.60;59.10;;;17.89;43.34;100378.31;5053286;28;20465;-77
2023/05/01 10:09:15;;;;;;;5.35;2.20;;;18.70;55.30;;;17.92;44.19;100384.00;5062533;28;20048;-76
2023/05/01 10:11:50;;;;;;;4.07;1.98;;;18.70;56.30;;;17.97;44.00;100380.53;5062641;28;20038;-76
2023/05/01 10:14:19;;;;;;;6.28;2.10;;;18.70;55.90;;;18.02;46.14;100375.97;5063503;28;20036;-77
2023/05/01 10:16:46;;;;;;;4.72;1.83;;;18.80;57.90;;;18.01;44.38;100377.06;5063315;28;20041;-77
2023/05/01 10:19:17;;;;;;;3.95;1.83;;;18.80;56.60;;;17.99;43.70;100371.09;5069937;28;20036;-77
2023/05/01 10:21:44;;;;;;;3.72;1.90;;;18.80;55.60;;;17.96;43.35;100366.22;5064677;28;20487;-78